Bellevue, Ohio
Current Conditions -  °F | °C
As of 6:32 AM on Saturday 20 Dec 2014 (Local Time) from KPCW Reporting Station
Overcast Overcast  
Wind Chill: 34°   Ceiling: 2500
Heat Index: 34°   Visibility: 10mi
Dew Point: 21°   Wind: 0mph
Humidity: 60%   Direction: NA
Pressure: 30.28"   Gusts: NA
Location:  41.27°N, 82.84°W
Report Text: KPCW 201132Z AUTO 00000KT 10SM OVC025 01/M06 A3028 RMK AO2 $
Loading
Personal Weather Stations






























Interactive Weather Map New forecast layout! Learn more

10-Day Weather Forecast

Advertisements
Track Severe Weather on mobile